Time;durP1;ratioP1;P1;durP2;ratioP2;P2;SDS_P1;SDS_P2;PMS_P1;PMS_P2;Temp;Humidity;BMP_temperature;BMP_pressure;BME280_temperature;BME280_humidity;BME280_pressure;Samples;Min_cycle;Max_cycle;Signal;HPM_P1;HPM_P2
2021/04/23 00:01:15;;;;;;;1.13;0.90;;;16.50;53.40;;;;;;5102493;28;20078;-36
2021/04/23 00:03:42;;;;;;;0.80;0.80;;;16.50;52.90;;;;;;5102407;28;20028;-35
2021/04/23 00:06:16;;;;;;;1.02;0.93;;;16.50;52.90;;;;;;5084074;28;20126;-36
2021/04/23 00:08:47;;;;;;;0.95;0.90;;;16.50;53.20;;;;;;5101913;28;20074;-35
2021/04/23 00:11:13;;;;;;;1.13;0.90;;;16.40;53.20;;;;;;5101989;28;20083;-36
2021/04/23 00:13:40;;;;;;;1.35;1.10;;;16.40;53.40;;;;;;5102363;28;20024;-36
2021/04/23 00:16:06;;;;;;;0.80;0.80;;;16.40;53.30;;;;;;5084046;28;20492;-35
2021/04/23 00:18:32;;;;;;;1.00;0.90;;;16.40;53.30;;;;;;5101630;28;20024;-36
2021/04/23 00:20:59;;;;;;;1.42;0.98;;;16.40;53.00;;;;;;5101832;28;20035;-35
2021/04/23 00:23:25;;;;;;;1.25;1.10;;;16.40;52.70;;;;;;5102142;28;20024;-36
2021/04/23 00:25:52;;;;;;;1.10;1.00;;;16.40;52.30;;;;;;5101930;28;20039;-35
2021/04/23 00:28:21;;;;;;;1.00;0.85;;;16.40;52.10;;;;;;5101968;28;20489;-37
2021/04/23 00:30:49;;;;;;;1.75;0.98;;;16.40;51.90;;;;;;5102100;28;20040;-36
2021/04/23 00:33:16;;;;;;;1.10;0.77;;;16.40;51.70;;;;;;5102009;28;20047;-36
2021/04/23 00:35:43;;;;;;;1.10;0.90;;;16.30;51.70;;;;;;5102227;28;20032;-36
2021/04/23 00:38:13;;;;;;;1.25;0.90;;;16.30;51.60;;;;;;5083305;28;20436;-37
2021/04/23 00:40:47;;;;;;;0.80;0.80;;;16.30;51.40;;;;;;5101627;28;20032;-35
2021/04/23 00:43:14;;;;;;;1.30;1.02;;;16.30;51.50;;;;;;5102080;28;20035;-36
2021/04/23 00:45:40;;;;;;;0.97;0.90;;;16.30;51.20;;;;;;5104568;28;20032;-35
2021/04/23 00:48:07;;;;;;;1.55;1.00;;;16.30;51.20;;;;;;5105276;28;20834;-35
2021/04/23 00:50:40;;;;;;;1.37;1.10;;;16.30;51.30;;;;;;5105415;28;20067;-35
2021/04/23 00:53:25;;;;;;;1.00;0.88;;;16.30;51.20;;;;;;5105360;28;20321;-35
2021/04/23 00:55:53;;;;;;;1.08;0.80;;;16.20;51.20;;;;;;5098864;28;20028;-35
2021/04/23 00:58:21;;;;;;;1.13;1.02;;;16.20;51.20;;;;;;5096081;28;20034;-35
2021/04/23 01:00:50;;;;;;;3.22;1.10;;;16.20;51.30;;;;;;5098216;28;20044;-35
2021/04/23 01:03:18;;;;;;;1.40;1.10;;;16.20;51.30;;;;;;5097827;28;20020;-35
2021/04/23 01:05:44;;;;;;;1.30;1.13;;;16.20;51.10;;;;;;5098351;28;20088;-36
2021/04/23 01:08:10;;;;;;;1.13;1.02;;;16.20;51.10;;;;;;5098072;28;20056;-37
2021/04/23 01:10:36;;;;;;;1.80;1.20;;;16.20;51.20;;;;;;5079911;28;20056;-35
2021/04/23 01:13:03;;;;;;;1.23;0.85;;;16.20;51.20;;;;;;5097893;28;20039;-35
2021/04/23 01:15:29;;;;;;;1.15;1.05;;;16.10;51.20;;;;;;5098542;28;20032;-35
2021/04/23 01:17:55;;;;;;;2.17;1.00;;;16.10;51.30;;;;;;5097436;28;20028;-35
2021/04/23 01:20:22;;;;;;;2.00;1.20;;;16.10;51.30;;;;;;5098602;28;20044;-35
2021/04/23 01:22:49;;;;;;;1.92;1.30;;;16.10;51.30;;;;;;5096800;28;20028;-35
2021/04/23 01:25:15;;;;;;;1.20;1.00;;;16.10;51.30;;;;;;5102480;28;20105;-35
2021/04/23 01:27:41;;;;;;;2.50;1.00;;;16.10;51.50;;;;;;5104604;28;20028;-35
2021/04/23 01:30:15;;;;;;;1.52;0.98;;;16.00;51.40;;;;;;5104373;28;20040;-35
2021/04/23 01:32:41;;;;;;;1.02;0.93;;;16.00;51.40;;;;;;5104560;28;20035;-35
2021/04/23 01:35:10;;;;;;;1.25;1.00;;;16.00;51.50;;;;;;5104748;28;20032;-35
2021/04/23 01:37:36;;;;;;;1.23;1.13;;;16.00;51.50;;;;;;5104324;28;20024;-35
2021/04/23 01:40:04;;;;;;;1.10;1.00;;;16.00;51.60;;;;;;5104171;28;20031;-35
2021/04/23 01:42:30;;;;;;;1.10;1.00;;;16.00;51.60;;;;;;5104464;28;20477;-35
2021/04/23 01:44:57;;;;;;;1.38;1.15;;;16.00;51.70;;;;;;5104634;28;20035;-36
2021/04/23 01:47:25;;;;;;;1.23;1.02;;;15.90;51.70;;;;;;5104716;28;20119;-36
2021/04/23 01:49:52;;;;;;;1.17;1.05;;;15.90;51.70;;;;;;5085833;28;20047;-35
2021/04/23 01:52:19;;;;;;;1.85;1.10;;;15.90;51.80;;;;;;5085799;28;20433;-35
2021/04/23 01:54:46;;;;;;;1.38;1.08;;;15.90;51.90;;;;;;5099785;28;20040;-35
2021/04/23 01:57:12;;;;;;;;;;;15.90;51.90;;;;;;5097020;28;20070;-35
2021/04/23 01:59:41;;;;;;;2.05;1.20;;;15.90;52.00;;;;;;5097199;28;19908;-35
2021/04/23 02:02:07;;;;;;;1.10;1.00;;;15.90;52.00;;;;;;5095988;28;20028;-35
2021/04/23 02:04:34;;;;;;;1.48;1.10;;;15.90;52.20;;;;;;5079281;28;20449;-36
2021/04/23 02:07:00;;;;;;;1.65;1.25;;;15.80;52.10;;;;;;5097162;28;20024;-35
2021/04/23 02:09:27;;;;;;;2.50;1.45;;;15.80;52.10;;;;;;5096574;28;20051;-35
2021/04/23 02:11:53;;;;;;;1.40;1.30;;;15.80;52.20;;;;;;5078503;28;20032;-35
2021/04/23 02:14:20;;;;;;;1.50;1.15;;;15.80;52.20;;;;;;5097059;28;20691;-35
2021/04/23 02:16:46;;;;;;;1.40;1.30;;;15.80;52.30;;;;;;5096545;28;20032;-35
2021/04/23 02:19:13;;;;;;;1.33;1.23;;;15.80;52.40;;;;;;5096245;28;20501;-37
2021/04/23 02:21:39;;;;;;;1.50;1.20;;;15.70;52.30;;;;;;5096906;28;20095;-35
2021/04/23 02:24:06;;;;;;;1.30;1.10;;;15.70;52.40;;;;;;5098094;28;20034;-35
2021/04/23 02:26:33;;;;;;;1.45;1.30;;;15.70;52.40;;;;;;5103620;28;20256;-35
2021/04/23 02:28:59;;;;;;;1.30;1.20;;;15.70;52.50;;;;;;5103472;28;20036;-35
2021/04/23 02:31:27;;;;;;;1.40;1.10;;;15.70;52.60;;;;;;5103353;28;20052;-35
2021/04/23 02:33:55;;;;;;;1.50;1.27;;;15.60;52.60;;;;;;5103832;28;20016;-35
2021/04/23 02:36:21;;;;;;;1.15;1.00;;;15.70;52.80;;;;;;5103481;28;20032;-35
2021/04/23 02:38:47;;;;;;;1.40;1.27;;;15.60;52.80;;;;;;5103129;28;20035;-35
2021/04/23 02:41:14;;;;;;;1.27;1.10;;;15.60;52.80;;;;;;5103355;28;20024;-35
2021/04/23 02:43:45;;;;;;;2.22;1.40;;;15.60;52.80;;;;;;5103559;28;20058;-35
2021/04/23 02:46:11;;;;;;;1.70;1.40;;;15.60;52.90;;;;;;5103388;28;20047;-35
2021/04/23 02:48:47;;;;;;;1.30;1.20;;;15.60;52.90;;;;;;5103475;28;20731;-35
2021/04/23 02:51:15;;;;;;;1.80;1.20;;;15.60;52.90;;;;;;5102879;28;20095;-35
2021/04/23 02:53:42;;;;;;;1.90;1.10;;;15.50;52.90;;;;;;5101076;28;20032;-35
2021/04/23 02:56:08;;;;;;;1.42;1.08;;;15.60;53.10;;;;;;5095169;28;20028;-35
2021/04/23 02:58:34;;;;;;;1.70;1.30;;;15.50;53.00;;;;;;5095641;28;20031;-35
2021/04/23 03:01:12;;;;;;;1.23;1.13;;;15.50;53.10;;;;;;5096003;28;20028;-36
2021/04/23 03:03:38;;;;;;;1.65;1.20;;;15.50;53.10;;;;;;5095654;28;20118;-34
2021/04/23 03:06:05;;;;;;;1.48;1.35;;;15.50;53.20;;;;;;5077280;28;20032;-35
2021/04/23 03:08:31;;;;;;;1.50;1.40;;;15.50;53.20;;;;;;5095034;28;20048;-35
2021/04/23 03:11:17;;;;;;;1.50;1.10;;;15.50;53.20;;;;;;5095143;28;20028;-35
2021/04/23 03:13:49;;;;;;;1.30;1.20;;;15.50;53.30;;;;;;5095008;28;20035;-35
2021/04/23 03:16:17;;;;;;;1.42;1.33;;;15.40;53.20;;;;;;5094830;28;20635;-35
2021/04/23 03:18:43;;;;;;;1.90;1.30;;;15.40;53.30;;;;;;5095170;28;20063;-36
2021/04/23 03:21:10;;;;;;;1.90;1.70;;;15.40;53.40;;;;;;5095509;28;20043;-35
2021/04/23 03:23:36;;;;;;;1.83;1.40;;;15.40;53.40;;;;;;5094026;28;20102;-35
2021/04/23 03:26:06;;;;;;;2.13;1.50;;;15.40;53.40;;;;;;5102748;28;20067;-35
2021/04/23 03:28:33;;;;;;;1.73;1.23;;;15.40;53.50;;;;;;5084375;28;20024;-35
2021/04/23 03:30:59;;;;;;;1.70;1.20;;;15.30;53.50;;;;;;5102447;28;20099;-35
2021/04/23 03:33:25;;;;;;;1.33;1.23;;;15.30;53.60;;;;;;5102577;28;20020;-35
2021/04/23 03:35:54;;;;;;;1.52;1.40;;;15.30;53.60;;;;;;5102627;28;20048;-35
2021/04/23 03:38:20;;;;;;;1.63;1.50;;;15.30;53.60;;;;;;5102781;28;20028;-35
2021/04/23 03:40:46;;;;;;;1.60;1.50;;;15.30;53.70;;;;;;5102465;28;20320;-35
2021/04/23 03:43:13;;;;;;;1.45;1.35;;;15.30;53.80;;;;;;5084650;28;20047;-39
2021/04/23 03:45:39;;;;;;;1.52;1.42;;;15.20;53.80;;;;;;5101727;28;20039;-35
2021/04/23 03:48:06;;;;;;;1.60;1.45;;;15.20;53.70;;;;;;5102586;28;20041;-35
2021/04/23 03:50:32;;;;;;;2.22;1.27;;;15.20;54.30;;;;;;5102391;28;20069;-35
2021/04/23 03:52:59;;;;;;;1.85;1.58;;;15.20;53.80;;;;;;5093160;28;20028;-35
2021/04/23 03:55:30;;;;;;;1.75;1.55;;;15.20;53.90;;;;;;5094697;28;20036;-35
2021/04/23 03:57:58;;;;;;;1.67;1.42;;;15.20;54.00;;;;;;5076846;28;20397;-35
2021/04/23 04:00:44;;;;;;;1.52;1.40;;;15.20;54.00;;;;;;5094427;28;20024;-35
2021/04/23 04:03:12;;;;;;;1.58;1.48;;;15.10;54.00;;;;;;5095736;28;20024;-35
2021/04/23 04:05:38;;;;;;;1.85;1.60;;;15.10;54.20;;;;;;5094626;28;20032;-35
2021/04/23 04:08:04;;;;;;;2.50;1.67;;;15.10;54.20;;;;;;5094752;28;20111;-35
2021/04/23 04:10:31;;;;;;;1.90;1.70;;;15.10;54.10;;;;;;5095406;28;20032;-35
2021/04/23 04:12:57;;;;;;;1.40;1.30;;;15.00;54.10;;;;;;5094798;28;20118;-37
2021/04/23 04:15:26;;;;;;;1.65;1.50;;;15.10;54.30;;;;;;5094772;28;20107;-35
2021/04/23 04:17:52;;;;;;;2.25;1.63;;;15.00;54.20;;;;;;5094995;28;20031;-35
2021/04/23 04:20:19;;;;;;;1.90;1.70;;;15.00;54.20;;;;;;5097652;28;20020;-35
2021/04/23 04:22:45;;;;;;;2.28;1.77;;;15.00;54.30;;;;;;5097938;28;20115;-34
2021/04/23 04:25:14;;;;;;;1.60;1.50;;;15.00;54.40;;;;;;5085908;28;20481;-35
2021/04/23 04:27:41;;;;;;;1.85;1.65;;;15.00;54.50;;;;;;5105905;28;20036;-35
2021/04/23 04:30:08;;;;;;;1.70;1.60;;;15.00;54.60;;;;;;5106080;28;20294;-35
2021/04/23 04:32:35;;;;;;;1.70;1.60;;;14.90;54.60;;;;;;5105741;28;20063;-35
2021/04/23 04:35:01;;;;;;;2.33;1.70;;;14.90;54.60;;;;;;5088012;28;20028;-36
2021/04/23 04:37:27;;;;;;;2.00;1.70;;;14.90;54.60;;;;;;5104949;28;20024;-35
2021/04/23 04:39:53;;;;;;;2.17;1.85;;;14.90;54.60;;;;;;5105948;28;20039;-35
2021/04/23 04:42:20;;;;;;;2.08;1.67;;;14.90;54.70;;;;;;5105588;28;20035;-35
2021/04/23 04:44:46;;;;;;;1.88;1.55;;;14.90;54.80;;;;;;5087831;28;20032;-35
2021/04/23 04:47:12;;;;;;;2.10;1.75;;;14.90;55.00;;;;;;5105723;28;20046;-35
2021/04/23 04:49:38;;;;;;;3.40;2.13;;;14.80;55.00;;;;;;5105552;28;20066;-35
2021/04/23 04:52:05;;;;;;;2.55;1.48;;;14.80;55.10;;;;;;5104893;28;20024;-35
2021/04/23 04:54:31;;;;;;;1.65;1.55;;;14.80;55.10;;;;;;5102074;28;20026;-35
2021/04/23 04:56:57;;;;;;;1.88;1.67;;;14.80;55.00;;;;;;5097895;28;20032;-35
2021/04/23 04:59:23;;;;;;;1.85;1.60;;;14.80;55.10;;;;;;5098150;28;20028;-35
2021/04/23 05:01:50;;;;;;;1.83;1.73;;;14.80;55.20;;;;;;5098655;28;20020;-35
2021/04/23 05:04:16;;;;;;;1.60;1.50;;;14.70;55.30;;;;;;5097961;28;20028;-35
2021/04/23 05:06:42;;;;;;;1.65;1.55;;;14.70;55.20;;;;;;5097189;28;20059;-35
2021/04/23 05:09:09;;;;;;;1.50;1.40;;;14.70;55.30;;;;;;5097052;28;20047;-35
2021/04/23 05:11:35;;;;;;;1.83;1.67;;;14.70;55.40;;;;;;5097693;28;20027;-39
2021/04/23 05:14:01;;;;;;;1.60;1.50;;;14.70;55.40;;;;;;5097315;28;20024;-35
2021/04/23 05:16:27;;;;;;;1.63;1.52;;;14.70;55.50;;;;;;5097868;28;20075;-35
2021/04/23 05:18:53;;;;;;;2.05;1.70;;;14.60;55.50;;;;;;5097886;28;20721;-35
2021/04/23 05:21:19;;;;;;;1.90;1.73;;;14.60;55.40;;;;;;5098421;28;20028;-35
2021/04/23 05:23:46;;;;;;;2.05;1.80;;;14.60;55.50;;;;;;5098026;28;20083;-36
2021/04/23 05:26:12;;;;;;;2.60;1.70;;;14.60;55.60;;;;;;5104684;28;20035;-34
2021/04/23 05:28:38;;;;;;;3.10;2.05;;;14.60;55.70;;;;;;5104826;28;20051;-35
2021/04/23 05:31:04;;;;;;;2.38;1.83;;;14.60;55.60;;;;;;5103899;28;20061;-35
2021/04/23 05:33:30;;;;;;;2.10;1.73;;;14.60;55.70;;;;;;5104716;28;20016;-35
2021/04/23 05:35:57;;;;;;;2.00;1.77;;;14.50;55.70;;;;;;5104602;28;20036;-35
2021/04/23 05:38:23;;;;;;;2.85;1.80;;;14.50;55.60;;;;;;5097186;28;20102;-35
2021/04/23 05:40:49;;;;;;;2.28;1.58;;;14.50;55.70;;;;;;5097551;28;20084;-35
2021/04/23 05:43:16;;;;;;;2.38;1.92;;;14.50;55.70;;;;;;5096999;28;20050;-35
2021/04/23 05:45:43;;;;;;;1.83;1.67;;;14.50;55.70;;;;;;5097363;28;21044;-35
2021/04/23 05:48:09;;;;;;;2.00;1.65;;;14.50;55.80;;;;;;5097001;28;20039;-35
2021/04/23 05:50:38;;;;;;;2.28;1.75;;;14.50;55.80;;;;;;5096468;28;20039;-35
2021/04/23 05:53:05;;;;;;;2.58;1.60;;;14.50;55.80;;;;;;5096822;28;20039;-35
2021/04/23 05:55:31;;;;;;;2.50;1.98;;;14.50;55.90;;;;;;5079310;28;20032;-35
2021/04/23 05:57:58;;;;;;;2.42;2.00;;;14.40;55.90;;;;;;5096997;28;20020;-35
2021/04/23 06:00:26;;;;;;;2.05;1.73;;;14.40;55.90;;;;;;5078763;28;20020;-35
2021/04/23 06:02:53;;;;;;;2.45;1.67;;;14.40;56.00;;;;;;5096693;28;20089;-35
2021/04/23 06:05:19;;;;;;;1.60;1.50;;;14.40;56.00;;;;;;5097122;28;20027;-34
2021/04/23 06:07:48;;;;;;;2.53;2.00;;;14.40;56.00;;;;;;5101283;28;20070;-35
2021/04/23 06:10:15;;;;;;;2.40;1.70;;;14.40;56.00;;;;;;5103318;28;20044;-35
2021/04/23 06:12:41;;;;;;;2.30;2.08;;;14.40;55.90;;;;;;5104064;28;20024;-35
2021/04/23 06:15:08;;;;;;;2.05;1.80;;;14.30;56.10;;;;;;5104139;28;20028;-35
2021/04/23 06:17:34;;;;;;;2.10;1.88;;;14.30;56.50;;;;;;5103737;28;20031;-35
2021/04/23 06:20:00;;;;;;;2.28;1.95;;;14.30;56.10;;;;;;5085668;28;20039;-34
2021/04/23 06:22:27;;;;;;;1.98;1.77;;;14.30;56.20;;;;;;5103327;28;20020;-34
2021/04/23 06:24:53;;;;;;;2.03;1.73;;;14.30;56.20;;;;;;5103897;28;20071;-35
2021/04/23 06:27:19;;;;;;;2.33;2.08;;;14.30;56.30;;;;;;5103558;28;20035;-35
2021/04/23 06:29:46;;;;;;;2.00;1.80;;;14.20;56.30;;;;;;5093102;28;20024;-35
2021/04/23 06:32:13;;;;;;;2.38;1.77;;;14.20;56.40;;;;;;5083341;28;20028;-35
2021/04/23 06:34:39;;;;;;;2.60;1.95;;;14.20;56.30;;;;;;5083221;28;20036;-35
2021/04/23 06:37:05;;;;;;;2.22;2.03;;;14.20;56.30;;;;;;5082774;28;20087;-35
2021/04/23 06:39:31;;;;;;;2.67;2.00;;;14.20;56.40;;;;;;5086345;28;20028;-35
2021/04/23 06:41:57;;;;;;;2.60;2.00;;;14.20;56.40;;;;;;5103189;28;20039;-35
2021/04/23 06:44:23;;;;;;;4.43;2.28;;;14.20;56.50;;;;;;5103456;28;20024;-35
2021/04/23 06:46:50;;;;;;;2.00;1.77;;;14.10;56.50;;;;;;5103250;28;20020;-35
2021/04/23 06:49:17;;;;;;;2.43;1.87;;;14.10;56.60;;;;;;5103160;28;20059;-35
2021/04/23 06:51:43;;;;;;;2.28;2.08;;;14.10;56.60;;;;;;5085072;28;20050;-36
2021/04/23 06:54:09;;;;;;;3.05;1.83;;;14.10;56.60;;;;;;5103059;28;20035;-35
2021/04/23 06:56:35;;;;;;;2.10;1.90;;;14.10;56.70;;;;;;5102992;28;20027;-35
2021/04/23 06:59:02;;;;;;;4.13;2.00;;;14.10;56.70;;;;;;5102703;28;20024;-35
2021/04/23 07:01:28;;;;;;;2.88;2.30;;;14.00;56.70;;;;;;5102840;28;20070;-35
2021/04/23 07:03:54;;;;;;;2.10;1.90;;;14.00;56.80;;;;;;5103038;28;20057;-35
2021/04/23 07:06:20;;;;;;;2.33;1.85;;;14.00;56.70;;;;;;5101732;28;20480;-35
2021/04/23 07:08:47;;;;;;;2.33;1.88;;;14.00;56.70;;;;;;5068813;28;20135;-35
2021/04/23 07:11:17;;;;;;;2.05;1.88;;;14.00;56.90;;;;;;5085574;28;20119;-35
2021/04/23 07:13:44;;;;;;;2.38;2.08;;;14.00;56.90;;;;;;5086945;28;20036;-34
2021/04/23 07:16:10;;;;;;;2.35;2.15;;;14.00;56.80;;;;;;5082588;28;20030;-35
2021/04/23 07:18:36;;;;;;;2.70;2.00;;;13.90;56.90;;;;;;5086717;28;20046;-35
2021/04/23 07:21:02;;;;;;;3.20;2.30;;;13.90;56.90;;;;;;5081514;28;20028;-34
2021/04/23 07:23:28;;;;;;;3.17;2.03;;;13.90;56.90;;;;;;5084537;28;20124;-35
2021/04/23 07:25:55;;;;;;;2.20;2.00;;;13.90;56.90;;;;;;5082554;28;20020;-35
2021/04/23 07:28:21;;;;;;;2.95;1.90;;;13.90;56.90;;;;;;5085017;28;20020;-35
2021/04/23 07:30:47;;;;;;;2.08;1.73;;;13.90;56.90;;;;;;5085590;28;20036;-35
2021/04/23 07:33:13;;;;;;;2.92;2.00;;;13.90;57.00;;;;;;5085030;28;20034;-35
2021/04/23 07:35:44;;;;;;;3.10;2.10;;;13.90;57.00;;;;;;5088754;28;20050;-35
2021/04/23 07:38:10;;;;;;;2.40;2.20;;;13.90;57.00;;;;;;5063592;28;20553;-35
2021/04/23 07:40:37;;;;;;;2.28;2.08;;;13.80;57.00;;;;;;5094586;28;20039;-35
2021/04/23 07:43:03;;;;;;;2.75;2.10;;;13.80;57.10;;;;;;5102596;28;20024;-35
2021/04/23 07:45:29;;;;;;;2.55;2.25;;;13.80;57.10;;;;;;5102463;28;20028;-35
2021/04/23 07:47:56;;;;;;;2.95;1.98;;;13.80;57.10;;;;;;5102520;28;20020;-35
2021/04/23 07:50:23;;;;;;;2.13;1.92;;;13.80;57.30;;;;;;5102182;28;20032;-35
2021/04/23 07:52:51;;;;;;;2.53;2.33;;;13.70;57.20;;;;;;5092255;28;20039;-35
2021/04/23 07:55:17;;;;;;;2.00;1.70;;;13.80;57.40;;;;;;5086163;28;20036;-35
2021/04/23 07:57:44;;;;;;;3.15;2.28;;;13.70;57.30;;;;;;5088711;28;20024;-35
2021/04/23 08:00:11;;;;;;;2.85;2.30;;;13.70;57.30;;;;;;5086286;28;20024;-35
2021/04/23 08:02:37;;;;;;;3.60;1.95;;;13.70;57.30;;;;;;5086350;28;20531;-35
2021/04/23 08:05:04;;;;;;;2.50;2.30;;;13.70;57.40;;;;;;5085992;28;20036;-35
2021/04/23 08:07:31;;;;;;;2.92;2.10;;;13.70;57.40;;;;;;5089535;28;20275;-38
2021/04/23 08:09:57;;;;;;;3.53;2.22;;;13.60;57.40;;;;;;5099687;28;20043;-35
2021/04/23 08:12:23;;;;;;;2.35;1.80;;;13.60;57.50;;;;;;5098756;28;20028;-35
2021/04/23 08:14:49;;;;;;;2.42;2.10;;;13.60;57.50;;;;;;5098878;28;20028;-35
2021/04/23 08:17:15;;;;;;;2.42;2.13;;;13.60;57.50;;;;;;5098614;28;20044;-35
2021/04/23 08:19:42;;;;;;;2.70;2.00;;;13.60;57.60;;;;;;5098759;28;20028;-35
2021/04/23 08:22:08;;;;;;;2.88;2.33;;;13.60;57.70;;;;;;5097776;28;20054;-35
2021/04/23 08:24:34;;;;;;;2.40;2.20;;;13.60;57.70;;;;;;5098995;28;20059;-35
2021/04/23 08:27:01;;;;;;;2.33;2.10;;;13.60;57.60;;;;;;5099722;28;20395;-35
2021/04/23 08:29:27;;;;;;;2.17;1.98;;;13.50;57.60;;;;;;5098318;28;20028;-35
2021/04/23 08:31:53;;;;;;;2.58;2.10;;;13.50;57.60;;;;;;5098610;28;20035;-34
2021/04/23 08:34:19;;;;;;;3.10;2.30;;;13.60;57.60;;;;;;5099234;28;20300;-35
2021/04/23 08:36:45;;;;;;;2.58;2.03;;;13.50;57.70;;;;;;5099656;28;20028;-35
2021/04/23 08:39:12;;;;;;;3.38;2.55;;;13.50;57.70;;;;;;5104061;28;20012;-35
2021/04/23 08:41:38;;;;;;;2.60;1.90;;;13.50;57.80;;;;;;5105903;28;20038;-35
2021/04/23 08:44:05;;;;;;;3.03;2.15;;;13.50;57.80;;;;;;5105882;28;20680;-35
2021/04/23 08:46:33;;;;;;;2.50;1.75;;;13.40;57.90;;;;;;5087434;28;20036;-35
2021/04/23 08:49:00;;;;;;;2.42;2.00;;;13.40;57.90;;;;;;5105220;28;20058;-35
2021/04/23 08:51:26;;;;;;;2.75;2.30;;;13.40;57.90;;;;;;5105581;28;20031;-35
2021/04/23 08:53:54;;;;;;;2.87;2.10;;;13.40;57.90;;;;;;5105018;28;20108;-35
2021/04/23 08:56:20;;;;;;;2.70;2.20;;;13.40;58.00;;;;;;5105416;28;20020;-35
2021/04/23 08:58:47;;;;;;;2.60;2.15;;;13.40;58.00;;;;;;5105098;28;20020;-35
2021/04/23 09:01:13;;;;;;;2.63;2.10;;;13.30;58.00;;;;;;5105268;28;20103;-35
2021/04/23 09:03:40;;;;;;;2.55;1.58;;;13.30;58.00;;;;;;5105292;28;20054;-35
2021/04/23 09:06:06;;;;;;;1.75;1.63;;;13.30;58.10;;;;;;5103995;28;20122;-35
2021/04/23 09:08:33;;;;;;;2.38;1.77;;;13.30;58.10;;;;;;5104571;28;20040;-35
2021/04/23 09:11:00;;;;;;;2.58;2.35;;;13.30;58.10;;;;;;5086609;28;20038;-35
2021/04/23 09:13:26;;;;;;;2.65;2.30;;;13.30;58.20;;;;;;5070182;28;20444;-35
2021/04/23 09:15:55;;;;;;;2.45;2.05;;;13.30;58.20;;;;;;5104871;28;20069;-35
2021/04/23 09:18:21;;;;;;;3.63;2.33;;;13.30;58.20;;;;;;5105074;28;20028;-35
2021/04/23 09:20:49;;;;;;;2.58;2.35;;;13.30;58.20;;;;;;5104850;28;20031;-35
2021/04/23 09:23:16;;;;;;;;;;;13.20;58.20;;;;;;5086683;28;20028;-35
2021/04/23 09:25:44;;;;;;;3.60;2.50;;;13.20;58.30;;;;;;5104958;28;19904;-35
2021/04/23 09:28:10;;;;;;;2.83;2.20;;;13.20;58.40;;;;;;5104894;28;20062;-35
2021/04/23 09:30:37;;;;;;;3.35;2.22;;;13.10;58.40;;;;;;5104339;28;20059;-35
2021/04/23 09:33:03;;;;;;;2.40;2.20;;;13.20;58.40;;;;;;5104935;28;20039;-35
2021/04/23 09:35:30;;;;;;;2.40;2.03;;;13.20;58.40;;;;;;5104330;28;20273;-35
2021/04/23 09:37:59;;;;;;;2.83;1.70;;;13.20;58.40;;;;;;5064533;28;20024;-34
2021/04/23 09:40:34;;;;;;;2.78;2.30;;;13.20;58.30;;;;;;5097001;28;20043;-34
2021/04/23 09:43:05;;;;;;;3.63;2.33;;;13.10;58.30;;;;;;5079822;28;20047;-34
2021/04/23 09:45:46;;;;;;;2.95;2.30;;;13.20;58.40;;;;;;5097090;28;20054;-34
2021/04/23 09:48:25;;;;;;;2.92;2.20;;;13.10;58.30;;;;;;5096179;28;20065;-36
2021/04/23 09:50:53;;;;;;;2.40;2.20;;;13.10;58.30;;;;;;5096092;28;20044;-36
2021/04/23 09:53:29;;;;;;;2.67;2.05;;;13.20;58.30;;;;;;5097898;28;20048;-35
2021/04/23 09:55:55;;;;;;;2.40;2.17;;;13.10;58.40;;;;;;5078731;28;20051;-35
2021/04/23 09:58:22;;;;;;;3.33;2.28;;;13.10;58.40;;;;;;5097474;28;20027;-35
2021/04/23 10:00:48;;;;;;;2.53;2.20;;;13.10;58.50;;;;;;5096512;28;20049;-34
2021/04/23 10:03:14;;;;;;;2.80;2.38;;;13.10;58.50;;;;;;5062708;28;20102;-35
2021/04/23 10:05:41;;;;;;;3.53;2.38;;;13.00;58.50;;;;;;5097315;28;20028;-35
2021/04/23 10:08:11;;;;;;;;;;;13.10;58.50;;;;;;5103653;28;20078;-35
2021/04/23 10:10:37;;;;;;;2.40;2.20;;;13.10;58.60;;;;;;5103767;28;19916;-34
2021/04/23 10:13:07;;;;;;;1.83;1.58;;;13.00;58.70;;;;;;5085793;28;20020;-34
2021/04/23 10:15:41;;;;;;;2.60;2.33;;;13.00;58.70;;;;;;5103914;28;20490;-35
2021/04/23 10:18:11;;;;;;;2.88;2.38;;;13.00;58.80;;;;;;5103651;28;20039;-34
2021/04/23 10:20:48;;;;;;;2.60;2.00;;;13.00;58.80;;;;;;5103844;28;20648;-35
2021/04/23 10:23:16;;;;;;;2.97;2.47;;;12.90;58.70;;;;;;5086800;28;20032;-35
2021/04/23 10:25:42;;;;;;;2.25;2.05;;;13.00;58.80;;;;;;5103446;28;20083;-34
2021/04/23 10:28:09;;;;;;;2.30;2.10;;;13.00;58.80;;;;;;5101573;28;20036;-35
2021/04/23 10:30:43;;;;;;;2.55;2.22;;;12.90;58.80;;;;;;5103398;28;20055;-35
2021/04/23 10:33:11;;;;;;;3.08;2.17;;;12.90;58.70;;;;;;5103640;28;20027;-35
2021/04/23 10:35:39;;;;;;;2.90;2.38;;;12.90;58.80;;;;;;5103483;28;20036;-35
2021/04/23 10:38:12;;;;;;;;;;;12.90;58.80;;;;;;5069120;28;20053;-35
2021/04/23 10:40:39;;;;;;;2.88;2.20;;;12.90;58.90;;;;;;5118911;28;19912;-35
2021/04/23 10:43:13;;;;;;;2.45;2.00;;;12.90;58.90;;;;;;5085108;28;20016;-35
2021/04/23 10:46:09;;;;;;;2.50;2.10;;;12.90;58.90;;;;;;5103357;28;20036;-34
2021/04/23 10:48:40;;;;;;;2.88;2.58;;;12.90;59.00;;;;;;5090203;28;20039;-35
2021/04/23 10:51:11;;;;;;;2.85;2.30;;;12.90;59.00;;;;;;5084766;28;20040;-35
2021/04/23 10:53:44;;;;;;;2.65;2.28;;;12.80;59.00;;;;;;5085460;28;20016;-34
2021/04/23 10:56:46;;;;;;;3.22;2.38;;;12.80;59.00;;;;;;5103270;28;20775;-35
2021/04/23 10:59:21;;;;;;;3.70;2.60;;;12.80;59.00;;;;;;5094098;28;20039;-35
2021/04/23 11:01:48;;;;;;;2.97;2.35;;;12.80;59.00;;;;;;5102898;28;20035;-35
2021/04/23 11:04:16;;;;;;;2.85;2.38;;;12.80;59.20;;;;;;5103132;28;20031;-35
2021/04/23 11:06:52;;;;;;;3.45;2.40;;;12.80;59.20;;;;;;5099072;28;20028;-35
2021/04/23 11:09:24;;;;;;;2.92;2.30;;;12.80;59.10;;;;;;5077454;28;20055;-35
2021/04/23 11:12:10;;;;;;;3.17;2.65;;;12.80;59.10;;;;;;5094772;28;20032;-35
2021/04/23 11:14:36;;;;;;;2.83;2.47;;;12.70;59.20;;;;;;5095484;28;20034;-35
2021/04/23 11:17:18;;;;;;;3.10;2.40;;;12.70;59.20;;;;;;5095686;28;20115;-35
2021/04/23 11:19:45;;;;;;;2.95;2.50;;;12.70;59.20;;;;;;5095281;28;20032;-34
2021/04/23 11:22:18;;;;;;;3.05;2.25;;;12.70;59.30;;;;;;5094531;28;20052;-35
2021/04/23 11:25:04;;;;;;;3.00;2.30;;;12.70;59.30;;;;;;5095447;28;20024;-34
2021/04/23 11:27:31;;;;;;;3.88;2.38;;;12.70;59.20;;;;;;5096137;28;20055;-35
2021/04/23 11:29:57;;;;;;;2.30;2.00;;;12.70;59.20;;;;;;5095291;28;20035;-36
2021/04/23 11:32:24;;;;;;;3.20;2.42;;;12.70;59.30;;;;;;5095461;28;20043;-35
2021/04/23 11:34:54;;;;;;;3.20;2.10;;;12.70;59.30;;;;;;5096268;28;20024;-37
2021/04/23 11:37:27;;;;;;;2.58;2.35;;;12.70;59.30;;;;;;5082670;28;20028;-36
2021/04/23 11:39:58;;;;;;;2.80;2.33;;;12.70;59.30;;;;;;5078762;28;20025;-35
2021/04/23 11:42:31;;;;;;;3.10;2.22;;;12.70;59.30;;;;;;5082119;28;20023;-35
2021/04/23 11:45:35;;;;;;;3.53;2.38;;;12.70;59.30;;;;;;5082137;28;20047;-35
2021/04/23 11:48:08;;;;;;;3.85;2.05;;;12.70;59.40;;;;;;5099401;28;20024;-35
2021/04/23 11:50:41;;;;;;;3.15;2.38;;;12.60;59.40;;;;;;5101668;28;20036;-35
2021/04/23 11:53:12;;;;;;;2.40;2.17;;;12.60;59.40;;;;;;5092575;28;20683;-35
2021/04/23 11:55:39;;;;;;;2.55;2.20;;;12.60;59.40;;;;;;5090396;28;20033;-35
2021/04/23 11:58:10;;;;;;;3.15;2.30;;;12.60;59.50;;;;;;5082228;28;20121;-35
2021/04/23 12:00:37;;;;;;;3.15;2.40;;;12.60;59.50;;;;;;5082353;28;20027;-35
2021/04/23 12:03:07;;;;;;;2.55;2.28;;;12.60;59.60;;;;;;5114346;28;20039;-35
2021/04/23 12:05:41;;;;;;;2.83;2.17;;;12.60;59.60;;;;;;5082225;28;20100;-35
2021/04/23 12:08:16;;;;;;;3.08;2.30;;;12.60;59.60;;;;;;5081687;28;20045;-35
2021/04/23 12:10:50;;;;;;;2.60;2.08;;;12.60;59.60;;;;;;5094830;28;20092;-36
2021/04/23 12:13:32;;;;;;;3.53;2.60;;;12.60;59.60;;;;;;5083021;28;20020;-35
2021/04/23 12:16:03;;;;;;;3.35;2.25;;;12.60;59.70;;;;;;5102335;28;20630;-35
2021/04/23 12:18:30;;;;;;;3.80;2.70;;;12.60;59.70;;;;;;5102281;28;20028;-35
2021/04/23 12:20:57;;;;;;;2.80;2.10;;;12.60;59.70;;;;;;5102189;28;20024;-35
2021/04/23 12:23:32;;;;;;;2.88;2.20;;;12.60;59.70;;;;;;5102019;28;20268;-35
2021/04/23 12:26:00;;;;;;;2.28;2.08;;;12.60;59.70;;;;;;5102443;28;20032;-35
2021/04/23 12:28:38;;;;;;;3.35;2.47;;;12.60;59.70;;;;;;5102367;28;20059;-35
2021/04/23 12:31:07;;;;;;;3.05;2.53;;;12.60;59.70;;;;;;5102055;28;20546;-35
2021/04/23 12:33:55;;;;;;;4.30;2.20;;;12.50;59.70;;;;;;5102217;28;20082;-36
2021/04/23 12:36:32;;;;;;;2.42;2.20;;;12.60;59.70;;;;;;5098348;28;20032;-34
2021/04/23 12:39:12;;;;;;;2.88;2.38;;;12.50;59.60;;;;;;5093733;28;20084;-35
2021/04/23 12:41:39;;;;;;;3.03;2.40;;;12.60;59.70;;;;;;5097678;28;20024;-35
2021/04/23 12:44:10;;;;;;;2.22;2.03;;;12.60;59.70;;;;;;5098790;28;20103;-35
2021/04/23 12:46:38;;;;;;;3.10;2.33;;;12.60;59.70;;;;;;5098403;28;20024;-35
2021/04/23 12:49:25;;;;;;;3.15;2.50;;;12.50;59.70;;;;;;5098409;28;20055;-35
2021/04/23 12:51:53;;;;;;;3.40;2.47;;;12.60;59.70;;;;;;5097748;28;20081;-35
2021/04/23 12:54:33;;;;;;;2.95;2.22;;;12.50;59.60;;;;;;5099068;28;20062;-36